Canonbie, United Kingdom
Current Conditions -  °F | °C
As of 1:20 PM on Tuesday 21 Oct 2014 (Local Time) from EGNC Reporting Station
Scattered Clouds Scattered Clouds  
Wind Chill: 10°   Ceiling: Unl
Heat Index: 10°   Visibility: 6mi
Dew Point:   Wind: 20mph
Humidity: 66%   Direction: 300°WNW
Pressure: 29.53"   Gusts: 31mph
Location:  55.08°N, 2.94°W
Report Text: EGNC 211220Z 30017G27KT 270V340 9999 FEW016 SCT023 10/04 Q1000
Loading
Personal Weather Stations






























Interactive Weather Map
Tropical Storm Tracking
New forecast layout! Learn more

10-Day Weather Forecast

Advertisements
Track Severe Weather on mobile